Latest Coastal Weather Observations for Lihou Reef Lighthouse

IDQ60701

Issued at 5:31 am EST Sunday 30 April 2017 (issued every 10 minutes, with the page automatically refreshed every 10 minutes)

About coastal observations | Map of coastal stations | Coastal observations for QLD | Marine services | Other Formats
Station Details ID: 200880 Name: LIHOU REEF LIGHTHOUSE Lat: -17.13 Lon: 152.15 Height: 0.0 m
Data from the previous 72 hours. | See also: Recent months at Lihou Reef Lighthouse
Date/Time
EST
Temp
°C
Wind Pressure Rain since
9am
mm
Weather Cloud Vis
km
Sea
Height
m
Swell
Dir  Spd
kts
Gust
kts
hPa Trend Height
m
Period
s
Dir
30/05:30am 26.1 SE 15 18 1012.9 - - - - - - - - -
30/05:00am 25.9 SE 14 17 1012.8 - - - - - - - - -
30/04:30am 25.9 SE 15 18 1012.4 - - - - - - - - -
30/04:00am 25.9 SE 16 19 1012.1 - - - - - - - - -
30/03:30am 26.0 SE 17 19 1012.0 - - - - - - - - -
30/03:00am 25.9 SE 18 22 1011.8 - - - - - - - - -
30/02:30am 25.9 SE 18 22 1011.9 - - - - - - - - -
30/02:00am 26.1 SE 17 20 1012.2 - - - - - - - - -
30/01:30am 26.0 SE 18 21 1012.5 - - - - - - - - -
30/01:00am 26.1 SE 17 20 1012.7 - - - - - - - - -
30/12:30am 26.1 SE 20 23 1013.1 - - - - - - - - -
30/12:00am 26.1 SE 20 24 1013.2 - - - - - - - - -
 
Date/Time
EST
Temp
°C
Wind Pressure Rain since
9am
mm
Weather Cloud Vis
km
Sea
Height
m
Swell
Dir  Spd
kts
Gust
kts
hPa Trend Height
m
Period
s
Dir
29/11:30pm 26.1 SE 19 23 1013.3 - - - - - - - - -
29/11:00pm 26.3 SE 18 21 1013.5 - - - - - - - - -
29/10:30pm 26.1 SE 17 21 1013.8 - - - - - - - - -
29/10:00pm 25.7 SSE 19 24 1013.8 - - - - - - - - -
29/09:30pm 26.1 SE 14 16 1014.0 - - - - - - - - -
29/09:00pm 26.0 SSE 14 17 1013.8 - - - - - - - - -
29/08:30pm 25.9 SSE 14 16 1013.8 - - - - - - - - -
29/08:00pm 25.9 SSE 15 18 1013.6 - - - - - - - - -
29/07:30pm 25.8 SSE 16 20 1013.3 - - - - - - - - -
29/07:00pm 25.8 SSE 16 19 1013.2 - - - - - - - - -
29/06:30pm 25.9 SSE 15 17 1012.9 - - - - - - - - -
29/06:00pm 25.7 SSE 15 17 1012.7 - - - - - - - - -
29/05:30pm 25.9 SSE 16 19 1012.6 - - - - - - - - -
29/05:00pm 25.8 SSE 16 19 1012.4 - - - - - - - - -
29/04:30pm 25.6 SSE 16 20 1012.1 - - - - - - - - -
29/04:00pm 25.6 SSE 15 19 1011.9 - - - - - - - - -
29/03:30pm 25.3 SSE 15 18 1011.5 - - - - - - - - -
29/03:00pm 25.2 SSE 14 19 1011.7 - - - - - - - - -
29/02:30pm 25.1 SSE 15 18 1011.7 - - - - - - - - -
29/02:00pm 25.2 SSE 14 17 1011.9 - - - - - - - - -
29/01:30pm 25.3 SSE 14 17 1012.3 - - - - - - - - -
29/01:00pm 24.9 SSE 12 15 1012.6 - - - - - - - - -
29/12:30pm 24.8 SSE 13 16 1012.9 - - - - - - - - -
29/12:00pm 24.8 S 13 16 1013.5 - - - - - - - - -
29/11:30am 24.8 S 13 17 1013.9 - - - - - - - - -
29/11:00am 24.7 S 13 16 1014.2 - - - - - - - - -
29/10:30am 24.8 S 15 19 1014.6 - - - - - - - - -
29/10:00am 24.8 S 15 18 1014.8 - - - - - - - - -
29/09:30am 24.7 S 14 20 1014.9 - - - - - - - - -
29/09:00am 24.6 S 13 16 1014.8 - - - - - - - - -
29/08:30am 24.5 S 12 15 1014.6 - - - - - - - - -
29/08:00am 24.4 SSW 12 15 1014.5 - - - - - - - - -
29/07:30am 24.2 S 13 18 1014.2 - - - - - - - - -
29/07:00am 24.2 S 14 17 1013.8 - - - - - - - - -
29/06:30am 24.2 S 10 15 1013.5 - - - - - - - - -
29/06:00am 24.3 SSW 13 17 1013.2 - - - - - - - - -
29/05:30am 24.2 S 15 19 1012.8 - - - - - - - - -
29/05:00am 24.0 S 10 13 1012.8 - - - - - - - - -
29/04:30am 23.9 S 12 14 1012.6 - - - - - - - - -
29/04:00am 24.0 S 15 19 1012.4 - - - - - - - - -
29/03:30am 23.9 S 12 16 1012.5 - - - - - - - - -
29/03:00am 24.1 S 14 18 1012.6 - - - - - - - - -
29/02:30am 24.2 S 15 18 1012.8 - - - - - - - - -
29/02:00am 24.0 S 14 17 1012.9 - - - - - - - - -
29/01:30am 24.2 SSW 15 18 1013.0 - - - - - - - - -
29/01:00am 24.0 S 15 18 1013.4 - - - - - - - - -
29/12:30am 24.3 S 13 17 1013.8 - - - - - - - - -
29/12:00am 24.2 S 13 16 1014.1 - - - - - - - - -
 
Date/Time
EST
Temp
°C
Wind Pressure Rain since
9am
mm
Weather Cloud Vis
km
Sea
Height
m
Swell
Dir  Spd
kts
Gust
kts
hPa Trend Height
m
Period
s
Dir
28/11:30pm 24.2 S 13 16 1014.3 - - - - - - - - -
28/11:00pm 24.4 S 13 17 1014.3 - - - - - - - - -
28/10:30pm 24.4 S 13 17 1014.5 - - - - - - - - -
28/10:00pm 24.7 S 15 19 1014.3 - - - - - - - - -
28/09:30pm 24.9 S 16 20 1014.1 - - - - - - - - -
28/09:00pm 24.8 - - - 1014.2 - - - - - - - - -
28/08:30pm 24.9 S 16 19 1014.0 - - - - - - - - -
28/08:00pm 25.1 S 17 20 1013.9 - - - - - - - - -
28/07:30pm 25.1 S 18 21 1013.7 - - - - - - - - -
28/07:00pm 25.2 S 18 22 1013.2 - - - - - - - - -
28/06:30pm 25.2 S 19 23 1012.9 - - - - - - - - -
28/06:00pm 25.4 S 19 24 1012.3 - - - - - - - - -
28/05:30pm 25.5 S 20 24 1012.0 - - - - - - - - -
28/05:00pm 25.5 S 20 25 1011.6 - - - - - - - - -
28/04:30pm 25.7 S 20 23 1011.2 - - - - - - - - -
28/04:00pm 25.9 S 20 24 1011.0 - - - - - - - - -
28/03:30pm 25.9 S 20 23 1010.9 - - - - - - - - -
28/03:00pm 26.1 S 18 22 1010.7 - - - - - - - - -
28/02:30pm 26.1 S 20 23 1010.9 - - - - - - - - -
28/02:00pm 25.9 S 19 22 1011.1 - - - - - - - - -
28/01:30pm 26.2 S 18 21 1011.1 - - - - - - - - -
28/01:00pm 25.8 S 18 22 1011.4 - - - - - - - - -
28/12:30pm 26.1 S 18 21 1012.1 - - - - - - - - -
28/12:00pm 26.0 S 18 22 1012.3 - - - - - - - - -
28/11:30am 26.0 SSE 16 19 1012.8 - - - - - - - - -
28/11:00am 25.6 S 17 19 1013.2 - - - - - - - - -
28/10:30am 25.8 SSW 16 20 1013.6 - - - - - - - - -
28/10:00am 25.8 S 18 21 1013.8 - - - - - - - - -
28/09:30am 26.2 SSW 15 19 1013.6 - - - - - - - - -
28/09:00am 25.9 SSW 16 21 1013.5 - - - - - - - - -
28/08:30am 26.4 SSW 8 12 1013.5 - - - - - - - - -
28/08:00am 26.3 SSW 9 13 1013.1 - - - - - - - - -
28/07:30am 26.1 SSW 9 14 1012.9 - - - - - - - - -
28/07:00am 26.0 SSW 8 11 1012.7 - - - - - - - - -
28/06:30am 25.9 SSW 9 13 1012.5 - - - - - - - - -
28/06:00am 25.9 SSW 8 12 1012.1 - - - - - - - - -
28/05:30am 25.9 SSW 7 11 1011.9 - - - - - - - - -
28/05:00am 25.6 SSE 6 9 1011.6 - - - - - - - - -
28/04:30am 25.5 SE 5 7 1011.4 - - - - - - - - -
28/04:00am 25.6 SE 6 7 1011.5 - - - - - - - - -
28/03:30am 25.6 SSE 5 7 1011.5 - - - - - - - - -
28/03:00am 25.7 SSE 6 8 1011.5 - - - - - - - - -
28/02:30am 25.8 SSE 7 8 1011.7 - - - - - - - - -
28/02:00am 25.9 SSE 8 10 1011.8 - - - - - - - - -
28/01:30am 25.8 SSE 7 9 1012.1 - - - - - - - - -
28/01:00am 25.9 SSE 9 11 1012.2 - - - - - - - - -
28/12:30am 26.0 SSE 9 11 1012.5 - - - - - - - - -
28/12:00am 26.1 S 11 13 1012.7 - - - - - - - - -
 
Date/Time
EST
Temp
°C
Wind Pressure Rain since
9am
mm
Weather Cloud Vis
km
Sea
Height
m
Swell
Dir  Spd
kts
Gust
kts
hPa Trend Height
m
Period
s
Dir
27/11:30pm 26.0 S 9 12 1012.6 - - - - - - - - -
27/11:00pm 26.1 S 8 11 1012.7 - - - - - - - - -
27/10:30pm 26.1 SSE 9 11 1013.0 - - - - - - - - -
27/10:00pm 26.1 SSE 8 11 1013.0 - - - - - - - - -
27/09:30pm 26.1 SSE 7 9 1013.0 - - - - - - - - -
27/09:00pm 26.2 SSE 8 9 1013.0 - - - - - - - - -
27/08:30pm 26.1 SSE 8 10 1012.7 - - - - - - - - -
27/08:00pm 26.2 SSE 7 9 1012.5 - - - - - - - - -
27/07:30pm 26.2 SSE 8 9 1012.0 - - - - - - - - -
27/07:00pm 26.1 S 6 8 1011.9 - - - - - - - - -
27/06:30pm 26.3 SSE 5 7 1011.7 - - - - - - - - -
27/06:00pm 26.4 SSE 6 8 1011.3 - - - - - - - - -
27/05:30pm 26.3 S 6 8 1011.3 - - - - - - - - -
27/05:00pm 26.5 S 6 8 1010.8 - - - - - - - - -
27/04:30pm 26.5 S 7 9 1010.4 - - - - - - - - -
27/04:00pm 26.7 SSW 4 7 1010.4 - - - - - - - - -
27/03:30pm 26.6 SSW 5 8 1010.3 - - - - - - - - -
27/03:00pm 26.7 SSW 5 9 1010.6 - - - - - - - - -
27/02:30pm 26.6 SSW 6 9 1010.7 - - - - - - - - -
27/02:00pm 26.7 SSW 7 9 1010.9 - - - - - - - - -
27/01:30pm 26.6 S 7 9 1011.0 - - - - - - - - -
27/01:00pm 26.8 S 6 8 1011.2 - - - - - - - - -
27/12:30pm 26.6 SE 6 8 1011.4 - - - - - - - - -
27/12:00pm 26.9 SE 4 5 1011.8 - - - - - - - - -
27/11:30am 26.8 ESE 5 7 1012.2 - - - - - - - - -
27/11:00am 26.9 ESE 4 6 1012.5 - - - - - - - - -
27/10:30am 26.8 ESE 5 7 1012.9 - - - - - - - - -
27/10:00am 26.8 SE 6 8 1013.1 - - - - - - - - -
27/09:30am 26.9 ESE 5 7 1013.3 - - - - - - - - -
27/09:00am 26.9 ESE 5 7 1013.1 - - - - - - - - -
27/08:30am 27.0 ESE 6 8 1012.8 - - - - - - - - -
27/08:00am 26.7 SE 7 8 1012.7 - - - - - - - - -
27/07:30am 26.5 SE 7 9 1012.3 - - - - - - - - -
27/07:00am 26.2 SE 7 9 1012.0 - - - - - - - - -
27/06:30am 26.2 SE 6 8 1011.7 - - - - - - - - -
27/06:00am 26.1 SE 6 7 1011.5 - - - - - - - - -

Other Formats:

Comma delimited format used in spreadsheet applications
http://www.bom.gov.au/fwo/IDQ60701/IDQ60701.94293.axf

JavaScript Object Notation format (JSON) in row-major order
http://www.bom.gov.au/fwo/IDQ60701/IDQ60701.94293.json